createdAt,value
2023-05-19T00:00:05.000Z,10.24
2023-05-19T00:01:09.000Z,10.26
2023-05-19T00:02:13.000Z,10.26
2023-05-19T00:03:16.000Z,10.26
2023-05-19T00:04:20.000Z,10.2
2023-05-19T00:05:24.000Z,10.16
2023-05-19T00:06:28.000Z,10.12
2023-05-19T00:07:31.000Z,10.08
2023-05-19T00:08:35.000Z,10.03
2023-05-19T00:09:39.000Z,10.01
2023-05-19T00:10:43.000Z,9.98
2023-05-19T00:11:47.000Z,9.96
2023-05-19T00:12:50.000Z,9.96
2023-05-19T00:13:54.000Z,9.94
2023-05-19T00:14:58.000Z,9.94
2023-05-19T00:16:02.000Z,9.94
2023-05-19T00:17:07.000Z,9.98
2023-05-19T00:18:10.000Z,9.99
2023-05-19T00:19:14.000Z,10.02
2023-05-19T00:20:18.000Z,10.03
2023-05-19T00:21:22.000Z,10.05
2023-05-19T00:22:25.000Z,10.03
2023-05-19T00:23:29.000Z,10.03
2023-05-19T00:24:33.000Z,10.03
2023-05-19T00:25:37.000Z,10.06
2023-05-19T00:26:40.000Z,10.05
2023-05-19T00:27:44.000Z,10.06
2023-05-19T00:28:48.000Z,10.06
2023-05-19T00:29:52.000Z,10.08
2023-05-19T00:30:56.000Z,10.08
2023-05-19T00:31:59.000Z,10.09
2023-05-19T00:33:03.000Z,10.1
2023-05-19T00:34:07.000Z,10.14
2023-05-19T00:35:11.000Z,10.12
2023-05-19T00:36:15.000Z,10.1
2023-05-19T00:37:18.000Z,10.1
2023-05-19T00:38:22.000Z,10.12
2023-05-19T00:39:26.000Z,10.12
2023-05-19T00:40:30.000Z,10.1
2023-05-19T00:41:39.000Z,10.09
2023-05-19T00:42:42.000Z,10.09
2023-05-19T00:43:46.000Z,10.12
2023-05-19T00:44:50.000Z,10.12
2023-05-19T00:45:54.000Z,10.12
2023-05-19T00:46:57.000Z,10.09
2023-05-19T00:48:01.000Z,10.05
2023-05-19T00:49:05.000Z,10.02
2023-05-19T00:50:09.000Z,9.99
2023-05-19T00:51:12.000Z,9.98
2023-05-19T00:52:16.000Z,9.98
2023-05-19T00:53:20.000Z,9.94
2023-05-19T00:54:24.000Z,9.94
2023-05-19T00:55:28.000Z,9.94
2023-05-19T00:56:31.000Z,9.94
2023-05-19T00:57:35.000Z,9.93
2023-05-19T00:58:39.000Z,9.93
2023-05-19T00:59:43.000Z,9.9
2023-05-19T01:00:47.000Z,9.88
2023-05-19T01:01:51.000Z,9.88
2023-05-19T01:02:54.000Z,9.9
2023-05-19T01:03:58.000Z,9.88
2023-05-19T01:05:02.000Z,9.9
2023-05-19T01:06:06.000Z,9.91
2023-05-19T01:07:09.000Z,9.91
2023-05-19T01:08:13.000Z,9.94
2023-05-19T01:09:17.000Z,9.93
2023-05-19T01:10:21.000Z,9.94
2023-05-19T01:11:24.000Z,9.94
2023-05-19T01:12:28.000Z,9.96
2023-05-19T01:13:32.000Z,9.98
2023-05-19T01:14:36.000Z,9.96
2023-05-19T01:15:40.000Z,9.96
2023-05-19T01:16:43.000Z,9.98
2023-05-19T01:17:47.000Z,9.99
2023-05-19T01:18:51.000Z,10.01
2023-05-19T01:19:55.000Z,10.02
2023-05-19T01:20:59.000Z,9.98
2023-05-19T01:22:02.000Z,9.98
2023-05-19T01:23:06.000Z,9.99
2023-05-19T01:24:10.000Z,9.99
2023-05-19T01:25:14.000Z,9.98
2023-05-19T01:26:17.000Z,9.99
2023-05-19T01:27:21.000Z,9.99
2023-05-19T01:28:25.000Z,9.99
2023-05-19T01:29:29.000Z,9.99
2023-05-19T01:30:33.000Z,9.96
2023-05-19T01:31:36.000Z,9.99
2023-05-19T01:32:40.000Z,9.99
2023-05-19T01:33:44.000Z,9.96
2023-05-19T01:34:48.000Z,9.96
2023-05-19T01:35:52.000Z,9.96
2023-05-19T01:36:56.000Z,9.99
2023-05-19T01:37:59.000Z,10.01
2023-05-19T01:39:03.000Z,9.99
2023-05-19T01:40:07.000Z,9.98
2023-05-19T01:41:11.000Z,9.96
2023-05-19T01:42:14.000Z,9.94
2023-05-19T01:43:18.000Z,9.94
2023-05-19T01:44:22.000Z,9.94
2023-05-19T01:45:26.000Z,9.94
2023-05-19T01:46:29.000Z,9.93
2023-05-19T01:47:33.000Z,9.94
2023-05-19T01:48:37.000Z,9.96
2023-05-19T01:49:41.000Z,9.98
2023-05-19T01:50:45.000Z,9.99
2023-05-19T01:51:49.000Z,10.02
2023-05-19T01:52:52.000Z,10.01
2023-05-19T01:53:56.000Z,10.02
2023-05-19T01:55:00.000Z,10.01
2023-05-19T01:56:04.000Z,10.03
2023-05-19T01:57:07.000Z,10.03
2023-05-19T01:58:11.000Z,10.03
2023-05-19T01:59:15.000Z,10.03
2023-05-19T02:00:19.000Z,10.01
2023-05-19T02:01:22.000Z,9.98
2023-05-19T02:02:26.000Z,9.96
2023-05-19T02:03:30.000Z,9.91
2023-05-19T02:04:34.000Z,9.87
2023-05-19T02:05:38.000Z,9.83
2023-05-19T02:06:41.000Z,9.78
2023-05-19T02:07:45.000Z,9.73
2023-05-19T02:08:49.000Z,9.72
2023-05-19T02:09:53.000Z,9.7
2023-05-19T02:10:57.000Z,9.72
2023-05-19T02:12:00.000Z,9.69
2023-05-19T02:13:04.000Z,9.69
2023-05-19T02:14:08.000Z,9.69
2023-05-19T02:15:12.000Z,9.66
2023-05-19T02:16:15.000Z,9.66
2023-05-19T02:17:19.000Z,9.66
2023-05-19T02:18:23.000Z,9.63
2023-05-19T02:19:27.000Z,9.6
2023-05-19T02:20:30.000Z,9.62
2023-05-19T02:21:34.000Z,9.62
2023-05-19T02:22:38.000Z,9.62
2023-05-19T02:23:42.000Z,9.65
2023-05-19T02:24:46.000Z,9.65
2023-05-19T02:25:50.000Z,9.66
2023-05-19T02:26:53.000Z,9.65
2023-05-19T02:27:57.000Z,9.63
2023-05-19T02:29:01.000Z,9.66
2023-05-19T02:30:05.000Z,9.63
2023-05-19T02:31:09.000Z,9.65
2023-05-19T02:32:12.000Z,9.63
2023-05-19T02:33:16.000Z,9.63
2023-05-19T02:34:20.000Z,9.62
2023-05-19T02:35:24.000Z,9.6
2023-05-19T02:36:27.000Z,9.57
2023-05-19T02:37:31.000Z,9.57
2023-05-19T02:38:35.000Z,9.57
2023-05-19T02:39:39.000Z,9.59
2023-05-19T02:40:43.000Z,9.6
2023-05-19T02:41:46.000Z,9.57
2023-05-19T02:42:50.000Z,9.57
2023-05-19T02:43:54.000Z,9.57
2023-05-19T02:44:58.000Z,9.55
2023-05-19T02:46:01.000Z,9.52
2023-05-19T02:47:05.000Z,9.52
2023-05-19T02:48:09.000Z,9.51
2023-05-19T02:49:13.000Z,9.51
2023-05-19T02:50:16.000Z,9.5
2023-05-19T02:51:20.000Z,9.5
2023-05-19T02:52:24.000Z,9.47
2023-05-19T02:53:28.000Z,9.47
2023-05-19T02:54:32.000Z,9.45
2023-05-19T02:55:35.000Z,9.45
2023-05-19T02:56:39.000Z,9.48
2023-05-19T02:57:43.000Z,9.5
2023-05-19T02:58:47.000Z,9.54
2023-05-19T02:59:51.000Z,9.54
2023-05-19T03:00:54.000Z,9.54
2023-05-19T03:01:58.000Z,9.57
2023-05-19T03:03:02.000Z,9.59
2023-05-19T03:04:06.000Z,9.6
2023-05-19T03:05:10.000Z,9.6
2023-05-19T03:06:14.000Z,9.6
2023-05-19T03:07:17.000Z,9.63
2023-05-19T03:08:21.000Z,9.6
2023-05-19T03:09:25.000Z,9.62
2023-05-19T03:10:29.000Z,9.65
2023-05-19T03:11:32.000Z,9.63
2023-05-19T03:12:36.000Z,9.63
2023-05-19T03:13:40.000Z,9.65
2023-05-19T03:14:44.000Z,9.65
2023-05-19T03:15:48.000Z,9.63
2023-05-19T03:16:51.000Z,9.62
2023-05-19T03:17:55.000Z,9.62
2023-05-19T03:18:59.000Z,9.59
2023-05-19T03:20:03.000Z,9.6
2023-05-19T03:21:06.000Z,9.59
2023-05-19T03:22:10.000Z,9.57
2023-05-19T03:23:14.000Z,9.57
2023-05-19T03:24:18.000Z,9.54
2023-05-19T03:25:22.000Z,9.51
2023-05-19T03:26:25.000Z,9.5
2023-05-19T03:27:29.000Z,9.47
2023-05-19T03:28:33.000Z,9.5
2023-05-19T03:29:37.000Z,9.5
2023-05-19T03:30:41.000Z,9.5
2023-05-19T03:31:44.000Z,9.47
2023-05-19T03:32:48.000Z,9.47
2023-05-19T03:33:52.000Z,9.48
2023-05-19T03:34:56.000Z,9.48
2023-05-19T03:36:00.000Z,9.47
2023-05-19T03:37:03.000Z,9.47
2023-05-19T03:38:07.000Z,9.48
2023-05-19T03:39:11.000Z,9.47
2023-05-19T03:40:15.000Z,9.45
2023-05-19T03:41:19.000Z,9.45
2023-05-19T03:42:22.000Z,9.45
2023-05-19T03:43:27.000Z,9.48
2023-05-19T03:44:31.000Z,9.5
2023-05-19T03:45:35.000Z,9.51
2023-05-19T03:46:39.000Z,9.54
2023-05-19T03:47:42.000Z,9.52
2023-05-19T03:48:46.000Z,9.6
2023-05-19T03:49:50.000Z,9.62
2023-05-19T03:50:54.000Z,9.65
2023-05-19T03:51:57.000Z,9.65
2023-05-19T03:53:01.000Z,9.66
2023-05-19T03:54:05.000Z,9.66
2023-05-19T03:55:09.000Z,9.67
2023-05-19T03:56:13.000Z,9.7
2023-05-19T03:57:16.000Z,9.7
2023-05-19T03:58:20.000Z,9.72
2023-05-19T03:59:24.000Z,9.69
2023-05-19T04:00:28.000Z,9.7
2023-05-19T04:01:32.000Z,9.7
2023-05-19T04:02:35.000Z,9.7
2023-05-19T04:03:39.000Z,9.7
2023-05-19T04:04:43.000Z,9.69
2023-05-19T04:05:47.000Z,9.7
2023-05-19T04:06:52.000Z,9.69
2023-05-19T04:07:55.000Z,9.72
2023-05-19T04:08:59.000Z,9.73
2023-05-19T04:10:03.000Z,9.8
2023-05-19T04:11:07.000Z,9.78
2023-05-19T04:12:10.000Z,9.81
2023-05-19T04:13:14.000Z,9.81
2023-05-19T04:14:18.000Z,9.81
2023-05-19T04:15:22.000Z,9.8
2023-05-19T04:16:26.000Z,9.8
2023-05-19T04:17:29.000Z,9.83
2023-05-19T04:18:33.000Z,9.81
2023-05-19T04:19:37.000Z,9.81
2023-05-19T04:20:41.000Z,9.87
2023-05-19T04:21:44.000Z,9.91
2023-05-19T04:22:49.000Z,9.94
2023-05-19T04:23:52.000Z,9.94
2023-05-19T04:24:56.000Z,9.96
2023-05-19T04:26:00.000Z,9.98
2023-05-19T04:27:04.000Z,9.98
2023-05-19T04:28:07.000Z,10.01
2023-05-19T04:29:11.000Z,10.02
2023-05-19T04:30:15.000Z,10.06
2023-05-19T04:31:19.000Z,10.08
2023-05-19T04:32:23.000Z,10.08
2023-05-19T04:33:26.000Z,10.08
2023-05-19T04:34:30.000Z,10.09
2023-05-19T04:35:34.000Z,10.09
2023-05-19T04:36:38.000Z,10.1
2023-05-19T04:37:42.000Z,10.16
2023-05-19T04:38:45.000Z,10.14
2023-05-19T04:39:49.000Z,10.14
2023-05-19T04:40:53.000Z,10.14
2023-05-19T04:41:57.000Z,10.14
2023-05-19T04:43:00.000Z,10.17
2023-05-19T04:44:04.000Z,10.2
2023-05-19T04:45:08.000Z,10.24
2023-05-19T04:46:12.000Z,10.24
2023-05-19T04:47:16.000Z,10.28
2023-05-19T04:48:19.000Z,10.28
2023-05-19T04:49:23.000Z,10.31
2023-05-19T04:50:27.000Z,10.41
2023-05-19T04:51:31.000Z,10.45
2023-05-19T04:52:34.000Z,10.43
2023-05-19T04:53:38.000Z,10.43
2023-05-19T04:54:42.000Z,10.45
2023-05-19T04:55:46.000Z,10.49
2023-05-19T04:56:50.000Z,10.58
2023-05-19T04:57:54.000Z,10.61
2023-05-19T04:58:57.000Z,10.48
2023-05-19T05:00:01.000Z,10.57
2023-05-19T05:01:05.000Z,10.61
2023-05-19T05:02:09.000Z,10.67
2023-05-19T05:03:12.000Z,10.75
2023-05-19T05:04:16.000Z,10.8
2023-05-19T05:05:20.000Z,10.85
2023-05-19T05:06:24.000Z,10.9
2023-05-19T05:07:28.000Z,10.86
2023-05-19T05:08:31.000Z,10.91
2023-05-19T05:09:35.000Z,10.86
2023-05-19T05:10:39.000Z,10.95
2023-05-19T05:11:43.000Z,10.98
2023-05-19T05:12:46.000Z,11.03
2023-05-19T05:13:50.000Z,11.03
2023-05-19T05:14:54.000Z,11.09
2023-05-19T05:15:58.000Z,11.19
2023-05-19T05:17:02.000Z,11.28
2023-05-19T05:18:05.000Z,11.36
2023-05-19T05:19:09.000Z,11.37
2023-05-19T05:20:13.000Z,11.38
2023-05-19T05:21:17.000Z,11.51
2023-05-19T05:22:20.000Z,11.58
2023-05-19T05:23:24.000Z,11.62
2023-05-19T05:24:28.000Z,11.7
2023-05-19T05:25:32.000Z,11.61
2023-05-19T05:26:35.000Z,11.49
2023-05-19T05:27:39.000Z,11.46
2023-05-19T05:28:43.000Z,11.51
2023-05-19T05:29:47.000Z,11.66
2023-05-19T05:30:50.000Z,11.73
2023-05-19T05:31:54.000Z,11.95
2023-05-19T05:32:58.000Z,12.03
2023-05-19T05:34:07.000Z,11.95
2023-05-19T05:35:11.000Z,12.14
2023-05-19T05:36:15.000Z,12.29
2023-05-19T05:37:19.000Z,12.32
2023-05-19T05:38:22.000Z,12.44
2023-05-19T05:39:26.000Z,12.66
2023-05-19T05:40:30.000Z,12.71
2023-05-19T05:41:34.000Z,12.63
2023-05-19T05:42:38.000Z,12.54
2023-05-19T05:43:41.000Z,12.55
2023-05-19T05:44:45.000Z,12.63
2023-05-19T05:45:49.000Z,12.62
2023-05-19T05:46:53.000Z,12.68
2023-05-19T05:47:56.000Z,12.77
2023-05-19T05:49:00.000Z,12.63
2023-05-19T05:50:04.000Z,12.68
2023-05-19T05:51:08.000Z,12.81
2023-05-19T05:52:12.000Z,12.86
2023-05-19T05:53:15.000Z,12.79
2023-05-19T05:54:19.000Z,12.79
2023-05-19T05:55:23.000Z,12.81
2023-05-19T05:56:27.000Z,12.95
2023-05-19T05:57:30.000Z,13.06
2023-05-19T05:58:34.000Z,12.91
2023-05-19T05:59:38.000Z,12.84
2023-05-19T06:00:47.000Z,12.93
2023-05-19T06:01:51.000Z,12.91
2023-05-19T06:02:54.000Z,12.84
2023-05-19T06:03:58.000Z,12.8
2023-05-19T06:05:07.000Z,12.62
2023-05-19T06:06:11.000Z,12.63
2023-05-19T06:07:20.000Z,12.69
2023-05-19T06:08:23.000Z,12.65
2023-05-19T06:09:27.000Z,12.55
2023-05-19T06:10:31.000Z,12.55
2023-05-19T06:11:35.000Z,12.62
2023-05-19T06:12:38.000Z,12.66
2023-05-19T06:13:42.000Z,12.73
2023-05-19T06:14:46.000Z,12.76
2023-05-19T06:15:50.000Z,12.77
2023-05-19T06:16:54.000Z,12.84
2023-05-19T06:17:58.000Z,12.9
2023-05-19T06:19:01.000Z,13.01
2023-05-19T06:20:05.000Z,13.04
2023-05-19T06:21:09.000Z,12.99
2023-05-19T06:22:13.000Z,13.11
2023-05-19T06:23:16.000Z,13.21
2023-05-19T06:24:20.000Z,13.24
2023-05-19T06:25:24.000Z,13.27
2023-05-19T06:26:28.000Z,13.36
2023-05-19T06:27:32.000Z,13.35
2023-05-19T06:28:35.000Z,13.4
2023-05-19T06:29:39.000Z,13.42
2023-05-19T06:30:43.000Z,13.43
2023-05-19T06:31:47.000Z,13.51
2023-05-19T06:32:51.000Z,13.53
2023-05-19T06:33:54.000Z,13.42
2023-05-19T06:34:58.000Z,13.42
2023-05-19T06:36:02.000Z,13.49
2023-05-19T06:37:06.000Z,13.53
2023-05-19T06:38:09.000Z,13.67
2023-05-19T06:39:13.000Z,13.42
2023-05-19T06:40:17.000Z,13.49
2023-05-19T06:41:26.000Z,13.73
2023-05-19T06:42:29.000Z,13.88
2023-05-19T06:43:33.000Z,13.85
2023-05-19T06:44:37.000Z,13.8
2023-05-19T06:45:41.000Z,13.82
2023-05-19T06:46:44.000Z,13.93
2023-05-19T06:47:48.000Z,14.08
2023-05-19T06:48:52.000Z,14.18
2023-05-19T06:49:56.000Z,14.05
2023-05-19T06:50:59.000Z,14.04
2023-05-19T06:52:03.000Z,13.98
2023-05-19T06:53:07.000Z,13.96
2023-05-19T06:54:11.000Z,13.85
2023-05-19T06:55:15.000Z,13.86
2023-05-19T06:56:19.000Z,13.82
2023-05-19T06:57:23.000Z,14.04
2023-05-19T06:58:26.000Z,14.15
2023-05-19T06:59:30.000Z,14.11
2023-05-19T07:00:34.000Z,14.05
2023-05-19T07:01:38.000Z,14.27
2023-05-19T07:02:42.000Z,14.31
2023-05-19T07:03:45.000Z,14.31
2023-05-19T07:04:49.000Z,14.37
2023-05-19T07:05:53.000Z,14.59
2023-05-19T07:06:57.000Z,14.23
2023-05-19T07:08:00.000Z,14.05
2023-05-19T07:09:04.000Z,13.93
2023-05-19T07:10:08.000Z,14.16
2023-05-19T07:11:12.000Z,14.26
2023-05-19T07:12:16.000Z,14.27
2023-05-19T07:13:19.000Z,14.18
2023-05-19T07:14:23.000Z,14.12
2023-05-19T07:15:27.000Z,14.11
2023-05-19T07:16:31.000Z,14.11
2023-05-19T07:17:35.000Z,14.08
2023-05-19T07:18:38.000Z,14.01
2023-05-19T07:19:42.000Z,13.68
2023-05-19T07:20:46.000Z,13.72
2023-05-19T07:21:50.000Z,13.85
2023-05-19T07:22:53.000Z,13.79
2023-05-19T07:23:57.000Z,13.79
2023-05-19T07:25:01.000Z,13.91
2023-05-19T07:26:05.000Z,14.08
2023-05-19T07:27:08.000Z,14.18
2023-05-19T07:28:12.000Z,14.04
2023-05-19T07:29:16.000Z,14.19
2023-05-19T07:30:20.000Z,14.27
2023-05-19T07:31:24.000Z,14.11
2023-05-19T07:32:27.000Z,14.04
2023-05-19T07:33:31.000Z,14.23
2023-05-19T07:34:35.000Z,14.34
2023-05-19T07:35:39.000Z,14.36
2023-05-19T07:36:43.000Z,14.13
2023-05-19T07:37:46.000Z,13.88
2023-05-19T07:38:50.000Z,14.01
2023-05-19T07:39:54.000Z,13.85
2023-05-19T07:40:58.000Z,13.71
2023-05-19T07:42:01.000Z,13.8
2023-05-19T07:43:05.000Z,13.9
2023-05-19T07:44:09.000Z,14.04
2023-05-19T07:45:13.000Z,14.19
2023-05-19T07:46:16.000Z,14.09
2023-05-19T07:47:20.000Z,14.09
2023-05-19T07:48:24.000Z,14.44
2023-05-19T07:49:28.000Z,14.38
2023-05-19T07:50:32.000Z,14.41
2023-05-19T07:51:36.000Z,14.49
2023-05-19T07:52:39.000Z,14.67
2023-05-19T07:53:43.000Z,14.79
2023-05-19T07:54:47.000Z,14.71
2023-05-19T07:55:51.000Z,14.69
2023-05-19T07:56:55.000Z,14.9
2023-05-19T07:57:58.000Z,14.9
2023-05-19T07:59:02.000Z,14.74
2023-05-19T08:00:06.000Z,14.97
2023-05-19T08:01:10.000Z,15.11
2023-05-19T08:02:13.000Z,15.08
2023-05-19T08:03:17.000Z,15.07
2023-05-19T08:04:21.000Z,15.17
2023-05-19T08:05:25.000Z,15.22
2023-05-19T08:06:29.000Z,15.22
2023-05-19T08:07:32.000Z,15.15
2023-05-19T08:08:36.000Z,15.01
2023-05-19T08:09:40.000Z,15.01
2023-05-19T08:10:44.000Z,15.12
2023-05-19T08:11:48.000Z,15.33
2023-05-19T08:12:51.000Z,15.32
2023-05-19T08:13:55.000Z,15.3
2023-05-19T08:14:59.000Z,15.36
2023-05-19T08:16:03.000Z,15.44
2023-05-19T08:17:07.000Z,15.54
2023-05-19T08:18:10.000Z,15.68
2023-05-19T08:19:14.000Z,15.83
2023-05-19T08:20:18.000Z,15.98
2023-05-19T08:21:22.000Z,15.99
2023-05-19T08:22:25.000Z,15.44
2023-05-19T08:23:29.000Z,15.47
2023-05-19T08:24:33.000Z,15.41
2023-05-19T08:25:37.000Z,15.35
2023-05-19T08:26:41.000Z,15.44
2023-05-19T08:27:44.000Z,15.66
2023-05-19T08:28:48.000Z,15.87
2023-05-19T08:29:52.000Z,15.98
2023-05-19T08:30:56.000Z,15.99
2023-05-19T08:32:00.000Z,15.76
2023-05-19T08:33:03.000Z,15.62
2023-05-19T08:34:07.000Z,15.72
2023-05-19T08:35:11.000Z,15.8
2023-05-19T08:36:15.000Z,15.84
2023-05-19T08:37:19.000Z,15.91
2023-05-19T08:38:22.000Z,16.0
2023-05-19T08:39:26.000Z,15.98
2023-05-19T08:40:30.000Z,15.76
2023-05-19T08:41:34.000Z,15.7
2023-05-19T08:42:37.000Z,15.7
2023-05-19T08:43:41.000Z,15.48
2023-05-19T08:44:45.000Z,15.44
2023-05-19T08:45:49.000Z,15.3
2023-05-19T08:46:53.000Z,15.38
2023-05-19T08:47:57.000Z,15.47
2023-05-19T08:49:00.000Z,15.47
2023-05-19T08:50:04.000Z,15.51
2023-05-19T08:51:08.000Z,15.68
2023-05-19T08:52:12.000Z,15.8
2023-05-19T08:53:15.000Z,15.76
2023-05-19T08:54:19.000Z,15.91
2023-05-19T08:55:23.000Z,15.85
2023-05-19T08:56:27.000Z,15.99
2023-05-19T08:57:30.000Z,16.1
2023-05-19T08:58:34.000Z,16.05
2023-05-19T08:59:38.000Z,16.18
2023-05-19T09:00:42.000Z,16.34
2023-05-19T09:01:46.000Z,16.42
2023-05-19T09:02:50.000Z,16.49
2023-05-19T09:03:53.000Z,16.51
2023-05-19T09:04:57.000Z,16.26
2023-05-19T09:06:01.000Z,16.22
2023-05-19T09:07:05.000Z,16.26
2023-05-19T09:08:08.000Z,16.52
2023-05-19T09:09:12.000Z,16.49
2023-05-19T09:10:16.000Z,16.84
2023-05-19T09:11:20.000Z,17.17
2023-05-19T09:12:23.000Z,17.5
2023-05-19T09:13:27.000Z,17.13
2023-05-19T09:14:31.000Z,17.04
2023-05-19T09:15:35.000Z,16.79
2023-05-19T09:16:39.000Z,16.83
2023-05-19T09:17:42.000Z,16.98
2023-05-19T09:18:46.000Z,17.13
2023-05-19T09:19:50.000Z,17.34
2023-05-19T09:20:54.000Z,17.59
2023-05-19T09:21:58.000Z,17.71
2023-05-19T09:23:01.000Z,17.56
2023-05-19T09:24:05.000Z,17.68
2023-05-19T09:25:09.000Z,18.01
2023-05-19T09:26:13.000Z,17.56
2023-05-19T09:27:17.000Z,16.87
2023-05-19T09:28:20.000Z,16.98
2023-05-19T09:29:24.000Z,17.37
2023-05-19T09:30:28.000Z,17.57
2023-05-19T09:31:32.000Z,17.63
2023-05-19T09:32:35.000Z,17.2
2023-05-19T09:33:39.000Z,17.17
2023-05-19T09:34:43.000Z,17.3
2023-05-19T09:35:47.000Z,17.81
2023-05-19T09:36:51.000Z,17.78
2023-05-19T09:37:55.000Z,17.52
2023-05-19T09:38:58.000Z,17.52
2023-05-19T09:40:02.000Z,17.27
2023-05-19T09:41:06.000Z,16.95
2023-05-19T09:42:10.000Z,17.1
2023-05-19T09:43:13.000Z,17.37
2023-05-19T09:44:17.000Z,17.63
2023-05-19T09:45:21.000Z,17.69
2023-05-19T09:46:25.000Z,18.09
2023-05-19T09:47:29.000Z,18.18
2023-05-19T09:48:32.000Z,18.21
2023-05-19T09:49:36.000Z,17.83
2023-05-19T09:50:40.000Z,17.88
2023-05-19T09:51:44.000Z,17.88
2023-05-19T09:52:48.000Z,18.08
2023-05-19T09:53:51.000Z,18.06
2023-05-19T09:54:55.000Z,18.54
2023-05-19T09:55:59.000Z,18.76
2023-05-19T09:57:03.000Z,18.45
2023-05-19T09:58:07.000Z,18.27
2023-05-19T09:59:11.000Z,18.31
2023-05-19T10:00:14.000Z,18.58
2023-05-19T10:01:18.000Z,18.63
2023-05-19T10:02:22.000Z,18.06
2023-05-19T10:03:26.000Z,18.15
2023-05-19T10:04:30.000Z,17.71
2023-05-19T10:05:33.000Z,17.52
2023-05-19T10:06:37.000Z,17.52
2023-05-19T10:07:41.000Z,17.57
2023-05-19T10:08:45.000Z,17.76
2023-05-19T10:09:48.000Z,17.54
2023-05-19T10:10:52.000Z,17.81
2023-05-19T10:12:01.000Z,18.21
2023-05-19T10:13:05.000Z,18.01
2023-05-19T10:14:09.000Z,18.11
2023-05-19T10:15:12.000Z,18.6
2023-05-19T10:16:16.000Z,19.09
2023-05-19T10:17:20.000Z,18.96
2023-05-19T10:18:24.000Z,18.91
2023-05-19T10:19:27.000Z,18.6
2023-05-19T10:20:31.000Z,18.57
2023-05-19T10:21:35.000Z,18.3
2023-05-19T10:22:39.000Z,18.34
2023-05-19T10:23:43.000Z,18.26
2023-05-19T10:24:47.000Z,18.09
2023-05-19T10:25:50.000Z,18.21
2023-05-19T10:26:54.000Z,18.08
2023-05-19T10:27:58.000Z,18.13
2023-05-19T10:29:02.000Z,18.34
2023-05-19T10:30:06.000Z,18.46
2023-05-19T10:31:09.000Z,18.6
2023-05-19T10:32:13.000Z,18.64
2023-05-19T10:33:17.000Z,18.68
2023-05-19T10:34:21.000Z,19.05
2023-05-19T10:35:24.000Z,19.07
2023-05-19T10:36:28.000Z,19.07
2023-05-19T10:37:32.000Z,19.04
2023-05-19T10:38:36.000Z,18.76
2023-05-19T10:39:40.000Z,19.08
2023-05-19T10:40:43.000Z,19.32
2023-05-19T10:41:47.000Z,18.97
2023-05-19T10:42:51.000Z,18.81
2023-05-19T10:43:55.000Z,18.54
2023-05-19T10:44:59.000Z,18.83
2023-05-19T10:46:02.000Z,19.01
2023-05-19T10:47:06.000Z,19.26
2023-05-19T10:48:10.000Z,19.54
2023-05-19T10:49:14.000Z,19.3
2023-05-19T10:50:18.000Z,19.41
2023-05-19T10:51:21.000Z,20.07
2023-05-19T10:52:25.000Z,20.42
2023-05-19T10:53:29.000Z,19.89
2023-05-19T10:54:34.000Z,19.71
2023-05-19T10:55:39.000Z,19.71
2023-05-19T10:56:42.000Z,19.97
2023-05-19T10:57:46.000Z,20.07
2023-05-19T10:58:50.000Z,20.17
2023-05-19T10:59:54.000Z,20.18
2023-05-19T11:00:57.000Z,20.67
2023-05-19T11:02:01.000Z,20.74
2023-05-19T11:03:05.000Z,20.02
2023-05-19T11:04:09.000Z,20.14
2023-05-19T11:05:13.000Z,20.74
2023-05-19T11:06:17.000Z,20.63
2023-05-19T11:07:21.000Z,21.1
2023-05-19T11:08:24.000Z,21.45
2023-05-19T11:09:28.000Z,21.84
2023-05-19T11:10:32.000Z,21.34
2023-05-19T11:11:36.000Z,20.86
2023-05-19T11:12:39.000Z,21.11
2023-05-19T11:13:43.000Z,21.65
2023-05-19T11:14:47.000Z,22.12
2023-05-19T11:15:51.000Z,22.04
2023-05-19T11:16:55.000Z,22.07
2023-05-19T11:17:58.000Z,22.74
2023-05-19T11:19:02.000Z,22.23
2023-05-19T11:20:06.000Z,22.07
2023-05-19T11:21:10.000Z,22.22
2023-05-19T11:22:14.000Z,22.13
2023-05-19T11:23:18.000Z,21.19
2023-05-19T11:24:21.000Z,21.45
2023-05-19T11:25:25.000Z,21.91
2023-05-19T11:26:29.000Z,22.21
2023-05-19T11:27:33.000Z,22.4
2023-05-19T11:28:37.000Z,22.07
2023-05-19T11:29:41.000Z,22.34
2023-05-19T11:30:45.000Z,22.16
2023-05-19T11:31:48.000Z,21.74
2023-05-19T11:32:52.000Z,21.85
2023-05-19T11:33:56.000Z,21.43
2023-05-19T11:35:00.000Z,21.28
2023-05-19T11:36:03.000Z,21.16
2023-05-19T11:37:07.000Z,21.07
2023-05-19T11:38:11.000Z,21.45
2023-05-19T11:39:15.000Z,21.62
2023-05-19T11:40:19.000Z,21.77
2023-05-19T11:41:23.000Z,21.63
2023-05-19T11:42:26.000Z,21.3
2023-05-19T11:43:30.000Z,21.01
2023-05-19T11:44:34.000Z,20.8
2023-05-19T11:45:38.000Z,20.63
2023-05-19T11:46:41.000Z,20.36
2023-05-19T11:47:45.000Z,19.41
2023-05-19T11:48:49.000Z,19.42
2023-05-19T11:49:53.000Z,19.16
2023-05-19T11:50:57.000Z,19.2
2023-05-19T11:52:00.000Z,19.35
2023-05-19T11:53:04.000Z,19.32
2023-05-19T11:54:13.000Z,19.2
2023-05-19T11:55:17.000Z,19.45
2023-05-19T11:56:21.000Z,18.97
2023-05-19T11:57:24.000Z,18.98
2023-05-19T11:58:28.000Z,19.07
2023-05-19T11:59:32.000Z,18.98
2023-05-19T12:00:36.000Z,19.12
2023-05-19T12:01:39.000Z,19.08
2023-05-19T12:02:43.000Z,19.35
2023-05-19T12:03:47.000Z,18.89
2023-05-19T12:04:51.000Z,19.01
2023-05-19T12:05:55.000Z,19.13
2023-05-19T12:06:58.000Z,19.17
2023-05-19T12:08:02.000Z,19.45
2023-05-19T12:09:06.000Z,19.74
2023-05-19T12:10:10.000Z,19.9
2023-05-19T12:11:14.000Z,19.92
2023-05-19T12:12:17.000Z,20.41
2023-05-19T12:13:21.000Z,20.65
2023-05-19T12:14:25.000Z,20.48
2023-05-19T12:15:29.000Z,20.33
2023-05-19T12:16:32.000Z,20.37
2023-05-19T12:17:36.000Z,20.82
2023-05-19T12:18:40.000Z,21.18
2023-05-19T12:19:44.000Z,21.35
2023-05-19T12:20:48.000Z,21.08
2023-05-19T12:21:51.000Z,21.19
2023-05-19T12:22:55.000Z,21.41
2023-05-19T12:23:59.000Z,20.8
2023-05-19T12:25:03.000Z,20.88
2023-05-19T12:26:07.000Z,20.15
2023-05-19T12:27:10.000Z,20.15
2023-05-19T12:28:14.000Z,20.29
2023-05-19T12:29:18.000Z,20.52
2023-05-19T12:30:22.000Z,21.11
2023-05-19T12:31:26.000Z,21.65
2023-05-19T12:32:29.000Z,21.63
2023-05-19T12:33:33.000Z,21.63
2023-05-19T12:34:37.000Z,21.84
2023-05-19T12:35:41.000Z,21.53
2023-05-19T12:36:44.000Z,21.1
2023-05-19T12:37:48.000Z,20.86
2023-05-19T12:38:52.000Z,20.71
2023-05-19T12:39:56.000Z,20.58
2023-05-19T12:41:00.000Z,20.44
2023-05-19T12:42:04.000Z,20.34
2023-05-19T12:43:07.000Z,20.32
2023-05-19T12:44:11.000Z,20.23
2023-05-19T12:45:15.000Z,20.07
2023-05-19T12:46:19.000Z,19.79
2023-05-19T12:47:22.000Z,20.0
2023-05-19T12:48:26.000Z,19.86
2023-05-19T12:49:30.000Z,20.0
2023-05-19T12:50:34.000Z,20.08
2023-05-19T12:51:37.000Z,20.15
2023-05-19T12:52:41.000Z,19.89
2023-05-19T12:53:45.000Z,19.71
2023-05-19T12:54:49.000Z,19.82
2023-05-19T12:55:52.000Z,19.68
2023-05-19T12:56:56.000Z,19.54
2023-05-19T12:58:00.000Z,19.41
2023-05-19T12:59:04.000Z,19.68
2023-05-19T13:00:07.000Z,20.29
2023-05-19T13:01:11.000Z,20.89
2023-05-19T13:02:15.000Z,21.07
2023-05-19T13:03:19.000Z,21.4
2023-05-19T13:04:23.000Z,21.23
2023-05-19T13:05:26.000Z,21.19
2023-05-19T13:06:30.000Z,20.82
2023-05-19T13:07:34.000Z,20.32
2023-05-19T13:08:38.000Z,20.44
2023-05-19T13:09:42.000Z,20.7
2023-05-19T13:10:45.000Z,20.68
2023-05-19T13:11:49.000Z,20.68
2023-05-19T13:12:53.000Z,20.95
2023-05-19T13:13:56.000Z,21.23
2023-05-19T13:15:00.000Z,21.59
2023-05-19T13:16:04.000Z,21.16
2023-05-19T13:17:08.000Z,20.65
2023-05-19T13:18:12.000Z,19.89
2023-05-19T13:19:16.000Z,19.54
2023-05-19T13:20:19.000Z,19.27
2023-05-19T13:21:23.000Z,18.82
2023-05-19T13:22:27.000Z,18.91
2023-05-19T13:23:31.000Z,19.12
2023-05-19T13:24:35.000Z,19.44
2023-05-19T13:25:38.000Z,19.89
2023-05-19T13:26:42.000Z,20.07
2023-05-19T13:27:46.000Z,19.96
2023-05-19T13:28:50.000Z,19.38
2023-05-19T13:29:54.000Z,19.84
2023-05-19T13:30:57.000Z,20.04
2023-05-19T13:32:01.000Z,19.9
2023-05-19T13:33:05.000Z,19.79
2023-05-19T13:34:09.000Z,19.9
2023-05-19T13:35:12.000Z,19.41
2023-05-19T13:36:16.000Z,19.19
2023-05-19T13:37:20.000Z,19.01
2023-05-19T13:38:24.000Z,18.6
2023-05-19T13:39:28.000Z,18.49
2023-05-19T13:40:32.000Z,18.86
2023-05-19T13:41:36.000Z,19.35
2023-05-19T13:42:39.000Z,19.56
2023-05-19T13:43:43.000Z,19.87
2023-05-19T13:44:47.000Z,19.77
2023-05-19T13:45:51.000Z,19.37
2023-05-19T13:46:54.000Z,19.12
2023-05-19T13:47:58.000Z,19.31
2023-05-19T13:49:02.000Z,19.47
2023-05-19T13:50:06.000Z,19.39
2023-05-19T13:51:10.000Z,19.62